Sacramento, CA (94256)

12:16 PM PDT on August 27, 2016 (GMT -0700)
Mansion Flats | | Change Station

Elev 24 ft 38.58 °N, 121.48 °W | Updated 15 seconds ago

Clear
Clear
73.4 °F
Feels Like 77 °F
N
2.8
Wind Variable Wind from SE
Gusts 5.3 mph

Today
High -- | Low -- °F
--% Chance of Precip.
Yesterday
High -- | Low -- °F
Precip. -- in
Pressure 29.97 in
Visibility 10.0 miles
Clouds Clear
Heat Index 77 °F
Dew Point 59 °F
Humidity 60%
Rainfall 0.00 in
Snow Depth Not available.
6:31 AM 7:42 PM
Waning Crescent, 22% visible
METAR KSAC 271853Z AUTO 24006KT 10SM CLR 23/12 A2997 RMK AO2 SLP148 T02330117
Pressure 29.97 in
Visibility 10.0 miles
Clouds Clear
Heat Index 77 °F
Dew Point 59 °F
Humidity 60%
Rainfall 0.00 in
Snow Depth Not available.
6:31 AM 7:42 PM
Waning Crescent, 22% visible
METAR KSAC 271853Z AUTO 24006KT 10SM CLR 23/12 A2997 RMK AO2 SLP148 T02330117

10-Day Weather Forecast

Almanac

Astronomy

Aug. 27, 2016 Rise Set
Actual Time
Civil Twilight
Nautical Twilight
Astronomical Twilight
Moon
Length of Visible Light
Length of Day
Tomorrow will be .
, % of the Moon is Illuminated

Today's Extremes

State Highs State Lows

Community

WunderPhotos

Upload Photos

1,935,411 photos uploaded!

WunderBlog® & News

Nearby

Air Quality

  Air Quality AQ Index Pollutant
Not available.

Snow Depth

Station Depth Elevation

Earthquake Activity

City Distance Mag. Time & Date
Minimum magnitude displayed is 2.5.

Coastal Water Temperatures

Place Temperature

Stations

Nearby Weather Stations

Station Location Temp. Windchill Dew Point Humidity Wind Precip. Elev Updated Type
                   

Watches & Warnings

There are currently no watches in effect.